sensor_id;sensor_type;location;lat;lon;timestamp;pressure;altitude;pressure_sealevel;temperature;humidity
6464;BME280;3265;42.694;23.282;2023-02-26T00:01:13;93483.09;;;14.47;55.56
6464;BME280;3265;42.694;23.282;2023-02-26T00:03:41;93484.38;;;14.54;54.96
6464;BME280;3265;42.694;23.282;2023-02-26T00:06:08;93496.88;;;14.62;53.37
6464;BME280;3265;42.694;23.282;2023-02-26T00:08:35;93484.38;;;14.54;53.71
6464;BME280;3265;42.694;23.282;2023-02-26T00:11:05;93489.03;;;14.57;54.12
6464;BME280;3265;42.694;23.282;2023-02-26T00:13:32;93483.06;;;14.57;55.16
6464;BME280;3265;42.694;23.282;2023-02-26T00:16:00;93470.03;;;14.47;54.91
6464;BME280;3265;42.694;23.282;2023-02-26T00:18:29;93460.59;;;14.51;55.28
6464;BME280;3265;42.694;23.282;2023-02-26T00:20:56;93480.72;;;14.50;55.04
6464;BME280;3265;42.694;23.282;2023-02-26T00:23:23;93484.66;;;14.48;55.62
6464;BME280;3265;42.694;23.282;2023-02-26T00:25:51;93473.44;;;14.47;54.20
6464;BME280;3265;42.694;23.282;2023-02-26T00:28:18;93477.56;;;14.53;54.06
6464;BME280;3265;42.694;23.282;2023-02-26T00:30:45;93454.03;;;14.53;52.74
6464;BME280;3265;42.694;23.282;2023-02-26T00:33:14;93450.66;;;14.53;52.07
6464;BME280;3265;42.694;23.282;2023-02-26T00:35:42;93453.75;;;14.55;55.43
6464;BME280;3265;42.694;23.282;2023-02-26T00:38:10;93441.84;;;14.39;55.13
6464;BME280;3265;42.694;23.282;2023-02-26T00:40:42;93458.53;;;14.48;54.17
6464;BME280;3265;42.694;23.282;2023-02-26T00:43:14;93472.34;;;14.53;53.92
6464;BME280;3265;42.694;23.282;2023-02-26T00:45:44;93460.06;;;14.49;52.75
6464;BME280;3265;42.694;23.282;2023-02-26T00:48:21;93456.94;;;14.47;53.25
6464;BME280;3265;42.694;23.282;2023-02-26T00:50:55;93460.91;;;14.44;54.01
6464;BME280;3265;42.694;23.282;2023-02-26T00:53:28;93454.34;;;14.47;53.64
6464;BME280;3265;42.694;23.282;2023-02-26T00:55:57;93439.97;;;14.44;52.54
6464;BME280;3265;42.694;23.282;2023-02-26T00:58:23;93451.47;;;14.43;53.56
6464;BME280;3265;42.694;23.282;2023-02-26T01:00:50;93462.97;;;14.47;51.70
6464;BME280;3265;42.694;23.282;2023-02-26T01:03:17;93440.72;;;14.50;53.35
6464;BME280;3265;42.694;23.282;2023-02-26T01:05:45;93455.63;;;14.49;52.86
6464;BME280;3265;42.694;23.282;2023-02-26T01:08:19;93434.22;;;14.47;52.79
6464;BME280;3265;42.694;23.282;2023-02-26T01:10:47;93460.06;;;14.54;51.62
6464;BME280;3265;42.694;23.282;2023-02-26T01:13:14;93430.28;;;14.50;52.94
6464;BME280;3265;42.694;23.282;2023-02-26T01:15:46;93447.56;;;14.41;53.00
6464;BME280;3265;42.694;23.282;2023-02-26T01:18:17;93421.72;;;14.39;53.89
6464;BME280;3265;42.694;23.282;2023-02-26T01:20:48;93426.47;;;14.32;54.32
6464;BME280;3265;42.694;23.282;2023-02-26T01:23:23;93404.00;;;14.26;54.31
6464;BME280;3265;42.694;23.282;2023-02-26T01:25:53;93421.31;;;14.12;54.12
6464;BME280;3265;42.694;23.282;2023-02-26T01:28:24;93382.59;;;14.24;51.44
6464;BME280;3265;42.694;23.282;2023-02-26T01:30:53;93395.63;;;14.34;51.64
6464;BME280;3265;42.694;23.282;2023-02-26T01:33:34;93402.34;;;14.45;51.07
6464;BME280;3265;42.694;23.282;2023-02-26T01:36:07;93348.78;;;14.43;51.84
6464;BME280;3265;42.694;23.282;2023-02-26T01:38:40;93369.41;;;14.44;50.49
6464;BME280;3265;42.694;23.282;2023-02-26T01:41:16;93386.41;;;14.42;50.70
6464;BME280;3265;42.694;23.282;2023-02-26T01:43:56;93372.75;;;14.50;50.28
6464;BME280;3265;42.694;23.282;2023-02-26T01:46:30;93387.91;;;14.53;50.35
6464;BME280;3265;42.694;23.282;2023-02-26T01:49:00;93386.06;;;14.53;50.63
6464;BME280;3265;42.694;23.282;2023-02-26T01:51:42;93407.22;;;14.57;50.46
6464;BME280;3265;42.694;23.282;2023-02-26T01:54:12;93386.13;;;14.48;51.01
6464;BME280;3265;42.694;23.282;2023-02-26T01:56:40;93405.22;;;14.44;50.89
6464;BME280;3265;42.694;23.282;2023-02-26T01:59:09;93385.91;;;14.40;50.24
6464;BME280;3265;42.694;23.282;2023-02-26T02:01:38;93379.34;;;14.42;50.84
6464;BME280;3265;42.694;23.282;2023-02-26T02:04:09;93357.69;;;14.32;50.99
6464;BME280;3265;42.694;23.282;2023-02-26T02:06:37;93382.28;;;14.36;50.19
6464;BME280;3265;42.694;23.282;2023-02-26T02:09:06;93359.03;;;14.34;49.73
6464;BME280;3265;42.694;23.282;2023-02-26T02:11:42;93384.38;;;14.34;50.69
6464;BME280;3265;42.694;23.282;2023-02-26T02:14:17;93364.25;;;14.34;50.14
6464;BME280;3265;42.694;23.282;2023-02-26T02:16:54;93367.13;;;14.33;49.97
6464;BME280;3265;42.694;23.282;2023-02-26T02:19:46;93377.84;;;14.31;51.17
6464;BME280;3265;42.694;23.282;2023-02-26T02:22:39;93359.03;;;14.29;49.70
6464;BME280;3265;42.694;23.282;2023-02-26T02:28:16;93338.44;;;14.23;50.51
6464;BME280;3265;42.694;23.282;2023-02-26T02:31:01;93360.63;;;14.25;50.49
6464;BME280;3265;42.694;23.282;2023-02-26T02:33:34;93377.59;;;14.28;50.40
6464;BME280;3265;42.694;23.282;2023-02-26T02:36:06;93367.41;;;14.26;50.31
6464;BME280;3265;42.694;23.282;2023-02-26T02:38:38;93355.91;;;14.27;50.34
6464;BME280;3265;42.694;23.282;2023-02-26T02:41:13;93377.41;;;14.19;50.90
6464;BME280;3265;42.694;23.282;2023-02-26T02:43:42;93366.13;;;14.23;49.94
6464;BME280;3265;42.694;23.282;2023-02-26T02:46:14;93386.78;;;14.20;50.59
6464;BME280;3265;42.694;23.282;2023-02-26T02:48:47;93382.31;;;14.26;49.98
6464;BME280;3265;42.694;23.282;2023-02-26T02:51:20;93363.81;;;14.17;50.26
6464;BME280;3265;42.694;23.282;2023-02-26T02:53:50;93373.16;;;14.23;50.10
6464;BME280;3265;42.694;23.282;2023-02-26T02:56:20;93383.66;;;14.18;50.11
6464;BME280;3265;42.694;23.282;2023-02-26T02:58:52;93405.84;;;14.20;49.19
6464;BME280;3265;42.694;23.282;2023-02-26T03:01:25;93403.78;;;14.23;49.29
6464;BME280;3265;42.694;23.282;2023-02-26T03:03:58;93402.97;;;14.22;49.77
6464;BME280;3265;42.694;23.282;2023-02-26T03:06:26;93393.81;;;14.25;49.57
6464;BME280;3265;42.694;23.282;2023-02-26T03:08:53;93382.63;;;14.19;48.87
6464;BME280;3265;42.694;23.282;2023-02-26T03:11:20;93377.84;;;14.26;48.88
6464;BME280;3265;42.694;23.282;2023-02-26T03:13:48;93383.63;;;14.23;49.00
6464;BME280;3265;42.694;23.282;2023-02-26T03:16:27;93387.06;;;14.18;50.05
6464;BME280;3265;42.694;23.282;2023-02-26T03:19:00;93377.09;;;14.20;49.01
6464;BME280;3265;42.694;23.282;2023-02-26T03:21:35;93391.78;;;14.16;49.49
6464;BME280;3265;42.694;23.282;2023-02-26T03:24:07;93370.31;;;14.25;48.14
6464;BME280;3265;42.694;23.282;2023-02-26T03:26:45;93390.19;;;14.20;48.62
6464;BME280;3265;42.694;23.282;2023-02-26T03:29:17;93379.22;;;14.18;48.20
6464;BME280;3265;42.694;23.282;2023-02-26T03:31:52;93367.72;;;14.19;48.13
6464;BME280;3265;42.694;23.282;2023-02-26T03:34:25;93382.09;;;14.22;49.06
6464;BME280;3265;42.694;23.282;2023-02-26T03:36:56;93395.44;;;14.15;48.85
6464;BME280;3265;42.694;23.282;2023-02-26T03:39:28;93376.38;;;14.15;49.15
6464;BME280;3265;42.694;23.282;2023-02-26T03:42:04;93367.00;;;14.09;49.77
6464;BME280;3265;42.694;23.282;2023-02-26T03:44:37;93369.88;;;14.07;50.05
6464;BME280;3265;42.694;23.282;2023-02-26T03:47:10;93375.34;;;14.11;50.43
6464;BME280;3265;42.694;23.282;2023-02-26T03:49:42;93372.53;;;14.02;50.98
6464;BME280;3265;42.694;23.282;2023-02-26T03:52:11;93367.56;;;14.01;51.14
6464;BME280;3265;42.694;23.282;2023-02-26T03:54:41;93367.31;;;13.97;51.18
6464;BME280;3265;42.694;23.282;2023-02-26T03:57:09;93359.78;;;13.96;51.75
6464;BME280;3265;42.694;23.282;2023-02-26T03:59:36;93348.03;;;13.88;51.76
6464;BME280;3265;42.694;23.282;2023-02-26T04:02:06;93367.19;;;13.79;52.30
6464;BME280;3265;42.694;23.282;2023-02-26T04:04:41;93371.06;;;13.81;52.29
6464;BME280;3265;42.694;23.282;2023-02-26T04:07:11;93359.06;;;13.80;52.11
6464;BME280;3265;42.694;23.282;2023-02-26T04:09:39;93358.81;;;13.77;52.12
6464;BME280;3265;42.694;23.282;2023-02-26T04:12:06;93365.56;;;13.83;52.26
6464;BME280;3265;42.694;23.282;2023-02-26T04:14:33;93357.31;;;13.71;52.85
6464;BME280;3265;42.694;23.282;2023-02-26T04:17:00;93364.59;;;13.74;52.58
6464;BME280;3265;42.694;23.282;2023-02-26T04:19:27;93339.56;;;13.62;53.45
6464;BME280;3265;42.694;23.282;2023-02-26T04:21:55;93360.13;;;13.74;52.75
6464;BME280;3265;42.694;23.282;2023-02-26T04:24:22;93356.22;;;13.72;52.24
6464;BME280;3265;42.694;23.282;2023-02-26T04:26:49;93332.91;;;13.85;50.55
6464;BME280;3265;42.694;23.282;2023-02-26T04:29:16;93344.38;;;13.89;50.65
6464;BME280;3265;42.694;23.282;2023-02-26T04:31:43;93322.69;;;13.94;50.19
6464;BME280;3265;42.694;23.282;2023-02-26T04:34:10;93320.56;;;14.01;50.15
6464;BME280;3265;42.694;23.282;2023-02-26T04:36:36;93332.56;;;14.02;50.11
6464;BME280;3265;42.694;23.282;2023-02-26T04:39:05;93370.19;;;14.01;49.38
6464;BME280;3265;42.694;23.282;2023-02-26T04:41:31;93306.94;;;14.04;49.33
6464;BME280;3265;42.694;23.282;2023-02-26T04:43:58;93337.00;;;14.01;49.62
6464;BME280;3265;42.694;23.282;2023-02-26T04:46:25;93310.34;;;14.04;49.67
6464;BME280;3265;42.694;23.282;2023-02-26T04:48:52;93310.88;;;14.01;49.55
6464;BME280;3265;42.694;23.282;2023-02-26T04:51:19;93314.00;;;14.03;48.97
6464;BME280;3265;42.694;23.282;2023-02-26T04:53:45;93293.94;;;13.99;48.63
6464;BME280;3265;42.694;23.282;2023-02-26T04:56:14;93298.28;;;14.08;47.26
6464;BME280;3265;42.694;23.282;2023-02-26T04:58:41;93324.66;;;14.12;47.12
6464;BME280;3265;42.694;23.282;2023-02-26T05:01:07;93306.25;;;14.32;46.05
6464;BME280;3265;42.694;23.282;2023-02-26T05:03:34;93297.31;;;14.38;46.25
6464;BME280;3265;42.694;23.282;2023-02-26T05:06:01;93305.44;;;14.37;46.01
6464;BME280;3265;42.694;23.282;2023-02-26T05:08:28;93318.22;;;14.38;46.58
6464;BME280;3265;42.694;23.282;2023-02-26T05:10:55;93277.72;;;14.36;46.08
6464;BME280;3265;42.694;23.282;2023-02-26T05:13:23;93273.53;;;14.35;46.26
6464;BME280;3265;42.694;23.282;2023-02-26T05:15:52;93260.00;;;14.28;46.46
6464;BME280;3265;42.694;23.282;2023-02-26T05:18:19;93281.91;;;14.37;45.76
6464;BME280;3265;42.694;23.282;2023-02-26T05:20:51;93278.00;;;14.34;46.01
6464;BME280;3265;42.694;23.282;2023-02-26T05:23:18;93262.34;;;14.34;45.91
6464;BME280;3265;42.694;23.282;2023-02-26T05:25:45;93252.09;;;14.38;46.10
6464;BME280;3265;42.694;23.282;2023-02-26T05:28:12;93243.00;;;14.30;45.92
6464;BME280;3265;42.694;23.282;2023-02-26T05:30:41;93270.94;;;14.35;45.96
6464;BME280;3265;42.694;23.282;2023-02-26T05:33:08;93233.00;;;14.37;45.73
6464;BME280;3265;42.694;23.282;2023-02-26T05:35:34;93269.03;;;14.45;45.43
6464;BME280;3265;42.694;23.282;2023-02-26T05:38:01;93269.22;;;14.49;44.81
6464;BME280;3265;42.694;23.282;2023-02-26T05:40:28;93237.88;;;14.49;45.14
6464;BME280;3265;42.694;23.282;2023-02-26T05:42:55;93248.56;;;14.52;45.04
6464;BME280;3265;42.694;23.282;2023-02-26T05:45:22;93262.34;;;14.58;44.21
6464;BME280;3265;42.694;23.282;2023-02-26T05:47:50;93251.09;;;14.62;44.05
6464;BME280;3265;42.694;23.282;2023-02-26T05:50:17;93261.78;;;14.66;44.47
6464;BME280;3265;42.694;23.282;2023-02-26T05:52:44;93270.34;;;14.71;43.98
6464;BME280;3265;42.694;23.282;2023-02-26T05:55:11;93247.84;;;14.70;44.07
6464;BME280;3265;42.694;23.282;2023-02-26T05:57:38;93267.38;;;14.78;43.89
6464;BME280;3265;42.694;23.282;2023-02-26T06:00:16;93290.88;;;14.83;43.11
6464;BME280;3265;42.694;23.282;2023-02-26T06:03:27;93305.69;;;14.93;42.44
6464;BME280;3265;42.694;23.282;2023-02-26T06:09:53;93263.41;;;14.86;41.55
6464;BME280;3265;42.694;23.282;2023-02-26T06:23:16;93285.56;;;15.35;40.10
6464;BME280;3265;42.694;23.282;2023-02-26T06:29:59;93265.00;;;15.29;40.21
6464;BME280;3265;42.694;23.282;2023-02-26T06:36:45;93302.47;;;15.48;39.38
6464;BME280;3265;42.694;23.282;2023-02-26T06:46:18;93275.66;;;15.56;38.82
6464;BME280;3265;42.694;23.282;2023-02-26T07:26:14;93259.16;;;15.74;37.41
6464;BME280;3265;42.694;23.282;2023-02-26T07:32:23;93240.81;;;15.56;37.42
6464;BME280;3265;42.694;23.282;2023-02-26T07:35:45;93213.81;;;15.60;38.06
6464;BME280;3265;42.694;23.282;2023-02-26T07:39:01;93287.53;;;16.05;37.02
6464;BME280;3265;42.694;23.282;2023-02-26T07:42:12;93301.41;;;16.05;38.04
6464;BME280;3265;42.694;23.282;2023-02-26T07:44:54;93281.41;;;15.96;37.61
6464;BME280;3265;42.694;23.282;2023-02-26T07:47:34;93265.94;;;15.94;37.08
6464;BME280;3265;42.694;23.282;2023-02-26T07:50:09;93243.25;;;15.89;37.54
6464;BME280;3265;42.694;23.282;2023-02-26T07:52:49;93267.78;;;16.12;36.74
6464;BME280;3265;42.694;23.282;2023-02-26T07:55:53;93202.00;;;15.95;36.77
6464;BME280;3265;42.694;23.282;2023-02-26T07:58:21;93274.13;;;16.25;37.10
6464;BME280;3265;42.694;23.282;2023-02-26T08:01:10;93269.91;;;16.42;37.09
6464;BME280;3265;42.694;23.282;2023-02-26T08:03:54;93315.47;;;16.46;37.03
6464;BME280;3265;42.694;23.282;2023-02-26T08:06:33;93228.97;;;16.28;36.95
6464;BME280;3265;42.694;23.282;2023-02-26T08:09:31;93266.59;;;16.37;36.60
6464;BME280;3265;42.694;23.282;2023-02-26T08:12:10;93272.72;;;16.32;37.12
6464;BME280;3265;42.694;23.282;2023-02-26T08:14:50;93295.19;;;16.52;37.29
6464;BME280;3265;42.694;23.282;2023-02-26T08:17:32;93277.28;;;16.59;37.62
6464;BME280;3265;42.694;23.282;2023-02-26T08:20:13;93245.00;;;16.26;37.40
6464;BME280;3265;42.694;23.282;2023-02-26T08:23:04;93215.56;;;16.16;36.77
6464;BME280;3265;42.694;23.282;2023-02-26T08:28:50;93225.47;;;16.19;36.69
6464;BME280;3265;42.694;23.282;2023-02-26T08:31:45;93261.78;;;16.25;37.13
6464;BME280;3265;42.694;23.282;2023-02-26T08:34:35;93266.22;;;16.43;37.64
6464;BME280;3265;42.694;23.282;2023-02-26T08:40:11;93260.44;;;16.28;37.47
6464;BME280;3265;42.694;23.282;2023-02-26T08:43:01;93298.38;;;16.49;37.12
6464;BME280;3265;42.694;23.282;2023-02-26T08:45:47;93275.31;;;16.32;36.96
6464;BME280;3265;42.694;23.282;2023-02-26T08:48:23;93324.34;;;16.83;37.33
6464;BME280;3265;42.694;23.282;2023-02-26T08:50:58;93307.69;;;16.74;37.04
6464;BME280;3265;42.694;23.282;2023-02-26T08:53:37;93292.56;;;16.71;37.20
6464;BME280;3265;42.694;23.282;2023-02-26T08:56:21;93317.03;;;16.80;36.61
6464;BME280;3265;42.694;23.282;2023-02-26T08:59:01;93259.88;;;16.63;36.71
6464;BME280;3265;42.694;23.282;2023-02-26T09:01:45;93303.06;;;16.84;36.13
6464;BME280;3265;42.694;23.282;2023-02-26T09:04:15;93330.50;;;17.06;36.09
6464;BME280;3265;42.694;23.282;2023-02-26T09:07:28;93308.06;;;16.99;35.95
6464;BME280;3265;42.694;23.282;2023-02-26T09:10:18;93300.53;;;16.79;36.23
6464;BME280;3265;42.694;23.282;2023-02-26T09:12:52;93304.66;;;17.13;35.68
6464;BME280;3265;42.694;23.282;2023-02-26T09:21:41;93332.28;;;17.65;34.78
6464;BME280;3265;42.694;23.282;2023-02-26T09:24:20;93314.44;;;17.89;33.77
6464;BME280;3265;42.694;23.282;2023-02-26T09:27:29;93347.81;;;18.38;33.51
6464;BME280;3265;42.694;23.282;2023-02-26T09:30:24;93314.69;;;18.14;31.49
6464;BME280;3265;42.694;23.282;2023-02-26T09:33:33;93343.25;;;18.65;32.17
6464;BME280;3265;42.694;23.282;2023-02-26T09:36:35;93279.66;;;18.50;31.31
6464;BME280;3265;42.694;23.282;2023-02-26T09:39:13;93348.31;;;18.84;30.29
6464;BME280;3265;42.694;23.282;2023-02-26T09:41:46;93363.81;;;18.86;30.72
6464;BME280;3265;42.694;23.282;2023-02-26T09:44:36;93347.09;;;19.12;30.56
6464;BME280;3265;42.694;23.282;2023-02-26T09:50:21;93311.94;;;19.25;29.90
6464;BME280;3265;42.694;23.282;2023-02-26T09:56:15;93313.56;;;19.35;29.06
6464;BME280;3265;42.694;23.282;2023-02-26T09:58:53;93319.41;;;19.71;29.58
6464;BME280;3265;42.694;23.282;2023-02-26T10:01:53;93372.03;;;19.76;29.92
6464;BME280;3265;42.694;23.282;2023-02-26T10:04:44;93329.94;;;19.63;30.08
6464;BME280;3265;42.694;23.282;2023-02-26T10:11:07;93321.59;;;19.69;30.60
6464;BME280;3265;42.694;23.282;2023-02-26T10:13:57;93319.88;;;19.65;30.32
6464;BME280;3265;42.694;23.282;2023-02-26T10:16:36;93299.56;;;19.74;31.16
6464;BME280;3265;42.694;23.282;2023-02-26T10:19:27;93319.31;;;19.85;29.79
6464;BME280;3265;42.694;23.282;2023-02-26T10:25:40;93258.47;;;19.56;30.03
6464;BME280;3265;42.694;23.282;2023-02-26T10:28:52;93324.78;;;20.14;31.12
6464;BME280;3265;42.694;23.282;2023-02-26T10:31:39;93298.50;;;19.83;30.26
6464;BME280;3265;42.694;23.282;2023-02-26T10:41:12;93294.34;;;19.83;30.48
6464;BME280;3265;42.694;23.282;2023-02-26T10:44:03;93310.78;;;19.88;31.14
6464;BME280;3265;42.694;23.282;2023-02-26T10:47:20;93285.16;;;19.89;31.67
6464;BME280;3265;42.694;23.282;2023-02-26T10:49:58;93267.16;;;19.56;31.57
6464;BME280;3265;42.694;23.282;2023-02-26T10:52:48;93257.84;;;19.19;31.95
6464;BME280;3265;42.694;23.282;2023-02-26T10:55:47;93269.94;;;19.20;32.63
6464;BME280;3265;42.694;23.282;2023-02-26T10:58:44;93303.63;;;19.32;32.86
6464;BME280;3265;42.694;23.282;2023-02-26T11:01:26;93251.13;;;19.05;32.78
6464;BME280;3265;42.694;23.282;2023-02-26T11:04:48;93268.22;;;19.07;33.57
6464;BME280;3265;42.694;23.282;2023-02-26T11:11:03;93243.13;;;19.10;33.87
6464;BME280;3265;42.694;23.282;2023-02-26T11:14:13;93273.22;;;18.87;33.22
6464;BME280;3265;42.694;23.282;2023-02-26T11:17:19;93246.59;;;18.57;33.65
6464;BME280;3265;42.694;23.282;2023-02-26T11:20:04;93217.41;;;18.01;34.11
6464;BME280;3265;42.694;23.282;2023-02-26T11:23:03;93268.59;;;18.17;34.30
6464;BME280;3265;42.694;23.282;2023-02-26T11:32:17;93247.44;;;17.64;35.79
6464;BME280;3265;42.694;23.282;2023-02-26T11:35:24;93233.47;;;17.28;36.32
6464;BME280;3265;42.694;23.282;2023-02-26T11:45:15;93232.00;;;16.81;38.68
6464;BME280;3265;42.694;23.282;2023-02-26T11:47:59;93281.91;;;17.22;39.15
6464;BME280;3265;42.694;23.282;2023-02-26T11:54:53;93297.94;;;17.07;38.39
6464;BME280;3265;42.694;23.282;2023-02-26T12:02:09;93276.72;;;16.62;40.44
6464;BME280;3265;42.694;23.282;2023-02-26T12:05:43;93308.59;;;16.83;40.21
6464;BME280;3265;42.694;23.282;2023-02-26T12:08:20;93376.31;;;17.27;39.81
6464;BME280;3265;42.694;23.282;2023-02-26T12:14:46;93375.38;;;17.36;39.25
6464;BME280;3265;42.694;23.282;2023-02-26T12:17:41;93369.34;;;17.49;39.09
6464;BME280;3265;42.694;23.282;2023-02-26T12:20:23;93436.22;;;17.84;38.92
6464;BME280;3265;42.694;23.282;2023-02-26T12:23:22;93341.72;;;17.11;39.55
6464;BME280;3265;42.694;23.282;2023-02-26T12:26:32;93414.03;;;17.17;41.11
6464;BME280;3265;42.694;23.282;2023-02-26T12:36:26;93356.78;;;16.73;42.59
6464;BME280;3265;42.694;23.282;2023-02-26T12:42:37;93433.06;;;17.41;41.42
6464;BME280;3265;42.694;23.282;2023-02-26T12:45:50;93378.38;;;17.30;40.39
6464;BME280;3265;42.694;23.282;2023-02-26T12:51:47;93393.63;;;17.60;40.97
6464;BME280;3265;42.694;23.282;2023-02-26T12:58:16;93439.56;;;18.03;38.79
6464;BME280;3265;42.694;23.282;2023-02-26T13:24:56;93413.16;;;17.54;39.95
6464;BME280;3265;42.694;23.282;2023-02-26T13:27:44;93444.31;;;17.74;40.05
6464;BME280;3265;42.694;23.282;2023-02-26T13:30:57;93405.47;;;17.98;41.34
6464;BME280;3265;42.694;23.282;2023-02-26T13:33:42;93399.34;;;18.39;40.76
6464;BME280;3265;42.694;23.282;2023-02-26T13:36:14;93386.13;;;18.66;40.62
6464;BME280;3265;42.694;23.282;2023-02-26T13:39:32;93418.25;;;19.21;39.81
6464;BME280;3265;42.694;23.282;2023-02-26T13:42:21;93375.78;;;19.22;39.26
6464;BME280;3265;42.694;23.282;2023-02-26T13:46:06;93389.69;;;19.76;38.09
6464;BME280;3265;42.694;23.282;2023-02-26T13:48:41;93389.84;;;19.40;37.96
6464;BME280;3265;42.694;23.282;2023-02-26T13:51:32;93354.53;;;18.88;38.56
6464;BME280;3265;42.694;23.282;2023-02-26T13:54:08;93396.56;;;19.02;39.30
6464;BME280;3265;42.694;23.282;2023-02-26T13:57:08;93385.09;;;18.98;39.64
6464;BME280;3265;42.694;23.282;2023-02-26T14:00:07;93414.25;;;19.01;38.92
6464;BME280;3265;42.694;23.282;2023-02-26T14:02:50;93396.47;;;19.07;37.62
6464;BME280;3265;42.694;23.282;2023-02-26T14:09:01;93362.44;;;18.88;37.73
6464;BME280;3265;42.694;23.282;2023-02-26T14:18:45;93410.66;;;18.75;38.21
6464;BME280;3265;42.694;23.282;2023-02-26T14:21:47;93334.94;;;18.14;38.85
6464;BME280;3265;42.694;23.282;2023-02-26T14:24:30;93365.31;;;18.20;37.29
6464;BME280;3265;42.694;23.282;2023-02-26T14:27:44;93348.00;;;18.05;39.04
6464;BME280;3265;42.694;23.282;2023-02-26T14:31:16;93361.88;;;17.56;40.64
6464;BME280;3265;42.694;23.282;2023-02-26T14:34:14;93358.31;;;17.07;41.47
6464;BME280;3265;42.694;23.282;2023-02-26T14:40:04;93357.69;;;16.82;42.41
6464;BME280;3265;42.694;23.282;2023-02-26T14:42:58;93356.13;;;16.81;42.63
6464;BME280;3265;42.694;23.282;2023-02-26T14:46:14;93413.56;;;17.15;42.76
6464;BME280;3265;42.694;23.282;2023-02-26T14:49:16;93429.41;;;17.10;42.86
6464;BME280;3265;42.694;23.282;2023-02-26T14:56:10;93395.56;;;16.76;42.25
6464;BME280;3265;42.694;23.282;2023-02-26T15:04:03;93446.91;;;16.64;42.99
6464;BME280;3265;42.694;23.282;2023-02-26T15:06:40;93426.00;;;16.59;41.85
6464;BME280;3265;42.694;23.282;2023-02-26T15:37:29;93451.81;;;15.67;48.84
6464;BME280;3265;42.694;23.282;2023-02-26T15:40:29;93495.03;;;15.88;49.28
6464;BME280;3265;42.694;23.282;2023-02-26T15:43:45;93428.50;;;15.37;50.21
6464;BME280;3265;42.694;23.282;2023-02-26T15:46:23;93429.97;;;15.19;51.47
6464;BME280;3265;42.694;23.282;2023-02-26T15:49:11;93463.75;;;15.49;51.93
6464;BME280;3265;42.694;23.282;2023-02-26T15:51:58;93466.97;;;15.36;51.87
6464;BME280;3265;42.694;23.282;2023-02-26T15:58:00;93469.28;;;15.14;51.70
6464;BME280;3265;42.694;23.282;2023-02-26T16:00:50;93474.47;;;15.19;51.90
6464;BME280;3265;42.694;23.282;2023-02-26T16:06:38;93456.50;;;15.07;51.45
6464;BME280;3265;42.694;23.282;2023-02-26T16:09:40;93516.59;;;15.22;52.58
6464;BME280;3265;42.694;23.282;2023-02-26T16:19:35;93523.16;;;15.20;53.44
6464;BME280;3265;42.694;23.282;2023-02-26T16:22:24;93497.69;;;14.97;53.25
6464;BME280;3265;42.694;23.282;2023-02-26T16:25:12;93491.22;;;14.84;53.28
6464;BME280;3265;42.694;23.282;2023-02-26T16:28:49;93533.19;;;15.08;53.69
6464;BME280;3265;42.694;23.282;2023-02-26T16:31:18;93515.91;;;15.07;53.47
6464;BME280;3265;42.694;23.282;2023-02-26T16:34:01;93454.53;;;14.55;53.53
6464;BME280;3265;42.694;23.282;2023-02-26T16:37:22;93473.34;;;14.62;53.54
6464;BME280;3265;42.694;23.282;2023-02-26T16:40:24;93468.91;;;14.58;53.61
6464;BME280;3265;42.694;23.282;2023-02-26T16:43:34;93482.03;;;14.53;52.02
6464;BME280;3265;42.694;23.282;2023-02-26T16:46:44;93472.63;;;14.47;52.51
6464;BME280;3265;42.694;23.282;2023-02-26T16:49:28;93557.66;;;14.88;51.82
6464;BME280;3265;42.694;23.282;2023-02-26T16:52:27;93518.47;;;14.83;51.75
6464;BME280;3265;42.694;23.282;2023-02-26T16:55:02;93546.13;;;14.89;51.52
6464;BME280;3265;42.694;23.282;2023-02-26T16:58:38;93554.25;;;14.88;51.51
6464;BME280;3265;42.694;23.282;2023-02-26T17:02:08;93552.13;;;14.90;52.37
6464;BME280;3265;42.694;23.282;2023-02-26T17:05:20;93516.34;;;14.85;49.62
6464;BME280;3265;42.694;23.282;2023-02-26T17:11:02;93570.16;;;14.96;51.30
6464;BME280;3265;42.694;23.282;2023-02-26T17:13:33;93571.19;;;15.00;52.50
6464;BME280;3265;42.694;23.282;2023-02-26T17:16:21;93563.66;;;14.89;53.69
6464;BME280;3265;42.694;23.282;2023-02-26T17:19:06;93542.94;;;14.97;53.25
6464;BME280;3265;42.694;23.282;2023-02-26T17:25:47;93518.53;;;14.68;53.60
6464;BME280;3265;42.694;23.282;2023-02-26T17:28:55;93520.50;;;14.42;53.71
6464;BME280;3265;42.694;23.282;2023-02-26T17:33:14;93471.94;;;14.31;53.09
6464;BME280;3265;42.694;23.282;2023-02-26T17:35:07;93548.31;;;14.72;53.55
6464;BME280;3265;42.694;23.282;2023-02-26T17:37:35;93523.66;;;14.39;53.21
6464;BME280;3265;42.694;23.282;2023-02-26T17:40:06;93501.22;;;14.23;53.07
6464;BME280;3265;42.694;23.282;2023-02-26T17:42:47;93567.94;;;14.69;52.93
6464;BME280;3265;42.694;23.282;2023-02-26T17:45:30;93584.59;;;14.84;52.58
6464;BME280;3265;42.694;23.282;2023-02-26T17:48:09;93579.09;;;14.90;52.74
6464;BME280;3265;42.694;23.282;2023-02-26T17:50:52;93513.63;;;14.56;52.86
6464;BME280;3265;42.694;23.282;2023-02-26T17:53:41;93503.28;;;14.26;52.86
6464;BME280;3265;42.694;23.282;2023-02-26T17:56:36;93577.06;;;14.77;53.12
6464;BME280;3265;42.694;23.282;2023-02-26T17:59:34;93558.06;;;14.61;53.38
6464;BME280;3265;42.694;23.282;2023-02-26T18:02:14;93522.00;;;14.58;53.26
6464;BME280;3265;42.694;23.282;2023-02-26T18:04:42;93561.69;;;14.70;53.39
6464;BME280;3265;42.694;23.282;2023-02-26T18:07:19;93544.03;;;14.37;54.65
6464;BME280;3265;42.694;23.282;2023-02-26T18:09:53;93572.13;;;14.70;54.41
6464;BME280;3265;42.694;23.282;2023-02-26T18:12:25;93533.31;;;14.44;55.24
6464;BME280;3265;42.694;23.282;2023-02-26T18:14:54;93558.06;;;14.61;55.73
6464;BME280;3265;42.694;23.282;2023-02-26T18:17:24;93520.53;;;14.37;55.89
6464;BME280;3265;42.694;23.282;2023-02-26T18:20:01;93530.50;;;14.25;56.20
6464;BME280;3265;42.694;23.282;2023-02-26T18:22:32;93552.94;;;14.31;56.22
6464;BME280;3265;42.694;23.282;2023-02-26T18:25:04;93573.31;;;14.39;54.97
6464;BME280;3265;42.694;23.282;2023-02-26T18:27:32;93550.41;;;14.11;55.32
6464;BME280;3265;42.694;23.282;2023-02-26T18:30:01;93554.28;;;14.18;55.33
6464;BME280;3265;42.694;23.282;2023-02-26T18:32:29;93568.38;;;14.33;55.51